createdAt,value
2019-02-27T00:00:37.343Z,18.07
2019-02-27T00:01:49.697Z,20.50
2019-02-27T00:02:56.155Z,19.45
2019-02-27T00:04:02.520Z,18.75
2019-02-27T00:05:09.444Z,17.77
2019-02-27T00:06:15.888Z,19.50
2019-02-27T00:07:21.883Z,19.20
2019-02-27T00:08:28.873Z,18.45
2019-02-27T00:09:34.574Z,16.23
2019-02-27T00:10:40.324Z,17.92
2019-02-27T00:11:46.844Z,18.07
2019-02-27T00:12:52.651Z,15.83
2019-02-27T00:13:58.924Z,15.65
2019-02-27T00:15:05.950Z,14.87
2019-02-27T00:16:12.122Z,14.30
2019-02-27T00:17:18.845Z,14.68
2019-02-27T00:18:25.971Z,13.38
2019-02-27T00:19:32.163Z,13.55
2019-02-27T00:20:39.033Z,13.25
2019-02-27T00:21:45.273Z,15.38
2019-02-27T00:22:51.631Z,16.75
2019-02-27T00:23:58.136Z,18.17
2019-02-27T00:25:04.853Z,21.82
2019-02-27T00:26:10.775Z,27.00
2019-02-27T00:27:17.076Z,30.10
2019-02-27T00:28:23.987Z,26.30
2019-02-27T00:29:29.889Z,17.85
2019-02-27T00:30:38.102Z,23.20
2019-02-27T00:31:46.079Z,26.10
2019-02-27T00:32:51.907Z,22.15
2019-02-27T00:33:59.842Z,18.75
2019-02-27T00:35:07.258Z,17.95
2019-02-27T00:36:12.941Z,18.37
2019-02-27T00:37:19.516Z,17.40
2019-02-27T00:38:25.820Z,17.50
2019-02-27T00:39:31.824Z,16.37
2019-02-27T00:40:39.342Z,14.07
2019-02-27T00:41:46.037Z,15.00
2019-02-27T00:42:54.448Z,14.33
2019-02-27T00:44:02.694Z,14.58
2019-02-27T00:45:11.374Z,16.23
2019-02-27T00:46:17.624Z,17.45
2019-02-27T00:47:24.777Z,16.67
2019-02-27T00:48:31.745Z,18.23
2019-02-27T00:49:37.634Z,17.60
2019-02-27T00:50:44.385Z,28.98
2019-02-27T00:51:50.132Z,32.40
2019-02-27T00:52:56.484Z,19.55
2019-02-27T00:54:03.442Z,18.67
2019-02-27T00:55:10.305Z,17.12
2019-02-27T00:56:16.914Z,19.17
2019-02-27T00:57:23.135Z,20.75
2019-02-27T00:58:29.533Z,19.67
2019-02-27T00:59:37.294Z,19.15
2019-02-27T01:01:02.820Z,16.15
2019-02-27T01:02:09.717Z,16.15
2019-02-27T01:03:16.605Z,16.40
2019-02-27T01:04:22.354Z,13.85
2019-02-27T01:05:30.095Z,13.88
2019-02-27T01:06:36.986Z,15.10
2019-02-27T01:07:43.464Z,14.65
2019-02-27T01:08:49.675Z,14.83
2019-02-27T01:09:55.953Z,13.70
2019-02-27T01:11:03.089Z,12.07
2019-02-27T01:12:09.474Z,11.48
2019-02-27T01:13:16.164Z,11.03
2019-02-27T01:14:25.677Z,10.85
2019-02-27T01:15:31.938Z,9.50
2019-02-27T01:16:38.676Z,11.73
2019-02-27T01:17:45.149Z,12.05
2019-02-27T01:18:51.886Z,12.35
2019-02-27T01:19:58.124Z,14.10
2019-02-27T01:21:05.092Z,16.45
2019-02-27T01:22:11.383Z,19.90
2019-02-27T01:23:18.014Z,27.27
2019-02-27T01:24:23.694Z,21.82
2019-02-27T01:25:30.667Z,27.13
2019-02-27T01:26:37.584Z,22.65
2019-02-27T01:27:44.506Z,13.22
2019-02-27T01:28:51.574Z,12.47
2019-02-27T01:29:57.894Z,13.83
2019-02-27T01:31:04.178Z,11.88
2019-02-27T01:32:10.245Z,10.63
2019-02-27T01:33:15.964Z,10.05
2019-02-27T01:34:22.918Z,10.50
2019-02-27T01:35:28.585Z,10.28
2019-02-27T01:36:34.300Z,10.13
2019-02-27T01:37:39.930Z,9.83
2019-02-27T01:38:46.924Z,11.08
2019-02-27T01:39:52.650Z,11.45
2019-02-27T01:40:58.297Z,10.98
2019-02-27T01:42:05.493Z,10.90
2019-02-27T01:43:11.456Z,10.93
2019-02-27T01:44:18.284Z,11.28
2019-02-27T01:45:25.344Z,10.40
2019-02-27T01:46:31.314Z,11.35
2019-02-27T01:47:37.854Z,17.80
2019-02-27T01:48:44.287Z,20.35
2019-02-27T01:49:49.971Z,20.27
2019-02-27T01:50:55.872Z,18.80
2019-02-27T01:52:03.225Z,18.15
2019-02-27T01:53:11.304Z,17.87
2019-02-27T01:54:17.514Z,16.87
2019-02-27T01:55:24.486Z,15.63
2019-02-27T01:56:31.785Z,15.00
2019-02-27T01:57:38.494Z,15.18
2019-02-27T01:58:45.004Z,20.95
2019-02-27T01:59:51.384Z,18.80
2019-02-27T02:00:57.593Z,24.75
2019-02-27T02:02:04.222Z,25.10
2019-02-27T02:03:11.217Z,25.77
2019-02-27T02:04:20.055Z,24.35
2019-02-27T02:05:27.216Z,20.62
2019-02-27T02:06:33.076Z,19.12
2019-02-27T02:07:40.376Z,18.25
2019-02-27T02:08:48.261Z,16.45
2019-02-27T02:09:55.246Z,16.17
2019-02-27T02:11:02.035Z,16.23
2019-02-27T02:12:14.093Z,15.98
2019-02-27T02:13:25.402Z,16.23
2019-02-27T02:15:03.658Z,17.42
2019-02-27T02:16:25.164Z,14.98
2019-02-27T02:17:57.088Z,17.52
2019-02-27T02:19:22.645Z,16.60
2019-02-27T02:20:51.218Z,17.23
2019-02-27T02:22:06.133Z,16.27
2019-02-27T02:23:34.536Z,16.37
2019-02-27T02:24:58.783Z,16.62
2019-02-27T02:26:24.885Z,17.15
2019-02-27T02:28:12.094Z,17.45
2019-02-27T02:29:46.134Z,17.32
2019-02-27T02:31:21.084Z,17.90
2019-02-27T02:33:04.180Z,17.90
2019-02-27T02:34:39.845Z,17.55
2019-02-27T02:36:02.648Z,17.05
2019-02-27T02:37:41.568Z,18.20
2019-02-27T02:39:19.435Z,18.35
2019-02-27T02:40:44.382Z,18.00
2019-02-27T02:42:15.917Z,16.65
2019-02-27T02:44:07.409Z,17.30
2019-02-27T02:45:42.726Z,16.55
2019-02-27T02:47:01.633Z,17.55
2019-02-27T02:48:27.805Z,17.80
2019-02-27T02:50:17.448Z,16.55
2019-02-27T02:51:43.804Z,16.37
2019-02-27T02:53:03.468Z,17.23
2019-02-27T02:54:39.332Z,16.97
2019-02-27T02:56:04.702Z,15.72
2019-02-27T02:57:41.062Z,16.73
2019-02-27T02:59:09.877Z,16.77
2019-02-27T03:00:39.345Z,15.90
2019-02-27T03:01:56.617Z,17.27
2019-02-27T03:03:15.847Z,16.57
2019-02-27T03:04:55.817Z,17.75
2019-02-27T03:06:21.185Z,17.40
2019-02-27T03:08:01.910Z,17.40
2019-02-27T03:09:30.664Z,16.82
2019-02-27T03:11:19.078Z,16.97
2019-02-27T03:12:43.367Z,16.50
2019-02-27T03:14:17.271Z,16.27
2019-02-27T03:15:49.920Z,16.32
2019-02-27T03:17:25.433Z,17.30
2019-02-27T03:18:50.868Z,17.30
2019-02-27T03:20:19.510Z,15.48
2019-02-27T03:21:42.279Z,17.82
2019-02-27T03:23:07.549Z,16.75
2019-02-27T03:24:43.825Z,16.05
2019-02-27T03:26:16.416Z,16.95
2019-02-27T03:27:55.807Z,16.97
2019-02-27T03:29:25.407Z,15.35
2019-02-27T03:30:40.237Z,15.65
2019-02-27T03:32:05.480Z,18.10
2019-02-27T03:33:48.373Z,17.23
2019-02-27T03:35:47.291Z,15.98
2019-02-27T03:37:15.435Z,17.15
2019-02-27T03:38:25.764Z,16.70
2019-02-27T03:39:51.378Z,16.50
2019-02-27T03:41:39.018Z,17.30
2019-02-27T03:42:52.646Z,18.65
2019-02-27T03:44:28.577Z,21.42
2019-02-27T03:46:17.193Z,21.25
2019-02-27T03:47:33.747Z,22.13
2019-02-27T03:48:46.148Z,21.97
2019-02-27T03:50:21.786Z,19.95
2019-02-27T03:51:43.056Z,19.57
2019-02-27T03:53:16.123Z,18.35
2019-02-27T03:55:03.085Z,17.98
2019-02-27T03:56:30.066Z,17.67
2019-02-27T03:58:06.546Z,17.65
2019-02-27T03:59:42.073Z,17.42
2019-02-27T04:01:04.315Z,18.40
2019-02-27T04:02:44.161Z,19.10
2019-02-27T04:04:35.816Z,17.55
2019-02-27T04:06:11.935Z,18.65
2019-02-27T04:07:34.257Z,20.02
2019-02-27T04:08:45.031Z,20.77
2019-02-27T04:09:54.827Z,20.35
2019-02-27T04:10:58.427Z,19.00
2019-02-27T04:12:04.209Z,19.70
2019-02-27T04:13:10.138Z,19.70
2019-02-27T04:14:30.925Z,19.27
2019-02-27T04:15:38.068Z,18.73
2019-02-27T04:16:43.837Z,20.02
2019-02-27T04:17:51.775Z,19.45
2019-02-27T04:18:55.727Z,19.73
2019-02-27T04:20:01.770Z,19.70
2019-02-27T04:21:08.987Z,19.62
2019-02-27T04:22:14.710Z,19.67
2019-02-27T04:23:21.262Z,18.87
2019-02-27T04:24:28.347Z,19.00
2019-02-27T04:25:34.231Z,18.23
2019-02-27T04:26:41.871Z,18.15
2019-02-27T04:27:48.005Z,17.70
2019-02-27T04:28:53.966Z,17.87
2019-02-27T04:30:00.056Z,18.32
2019-02-27T04:31:06.166Z,18.12
2019-02-27T04:32:13.247Z,18.07
2019-02-27T04:33:22.905Z,17.20
2019-02-27T04:34:26.474Z,18.90
2019-02-27T04:35:34.206Z,18.00
2019-02-27T04:36:39.675Z,19.12
2019-02-27T04:37:45.416Z,17.05
2019-02-27T04:38:51.048Z,17.87
2019-02-27T04:39:56.696Z,19.27
2019-02-27T04:41:02.456Z,18.75
2019-02-27T04:42:08.402Z,17.95
2019-02-27T04:43:14.956Z,17.73
2019-02-27T04:44:21.555Z,17.95
2019-02-27T04:45:27.841Z,17.42
2019-02-27T04:46:34.777Z,17.55
2019-02-27T04:47:41.575Z,17.92
2019-02-27T04:48:48.674Z,17.32
2019-02-27T04:49:55.446Z,18.85
2019-02-27T04:51:02.534Z,18.98
2019-02-27T04:52:08.842Z,17.73
2019-02-27T04:53:15.749Z,17.05
2019-02-27T04:54:21.462Z,17.55
2019-02-27T04:55:28.776Z,18.35
2019-02-27T04:56:36.006Z,17.30
2019-02-27T04:57:43.102Z,17.60
2019-02-27T04:58:50.347Z,16.40
2019-02-27T04:59:57.174Z,16.40
2019-02-27T05:01:02.870Z,18.32
2019-02-27T05:02:08.611Z,18.35
2019-02-27T05:03:14.333Z,17.82
2019-02-27T05:04:21.728Z,17.10
2019-02-27T05:05:27.469Z,17.62
2019-02-27T05:06:33.199Z,19.32
2019-02-27T05:07:38.814Z,17.37
2019-02-27T05:08:44.519Z,17.17
2019-02-27T05:09:50.201Z,18.70
2019-02-27T05:10:55.864Z,18.37
2019-02-27T05:12:01.596Z,17.98
2019-02-27T05:13:08.069Z,16.70
2019-02-27T05:14:13.979Z,18.52
2019-02-27T05:15:20.764Z,18.50
2019-02-27T05:16:27.670Z,18.10
2019-02-27T05:17:33.388Z,18.15
2019-02-27T05:18:39.956Z,19.32
2019-02-27T05:19:46.339Z,18.30
2019-02-27T05:20:52.686Z,18.65
2019-02-27T05:22:01.141Z,18.17
2019-02-27T05:23:07.039Z,18.35
2019-02-27T05:24:13.796Z,17.57
2019-02-27T05:25:20.386Z,18.70
2019-02-27T05:26:27.339Z,19.05
2019-02-27T05:27:34.239Z,18.20
2019-02-27T05:28:40.319Z,18.23
2019-02-27T05:29:46.190Z,19.05
2019-02-27T05:30:52.547Z,18.77
2019-02-27T05:31:59.167Z,19.35
2019-02-27T05:33:06.416Z,19.17
2019-02-27T05:34:13.607Z,20.75
2019-02-27T05:35:23.582Z,19.35
2019-02-27T05:36:29.020Z,20.20
2019-02-27T05:37:36.133Z,21.33
2019-02-27T05:38:43.534Z,22.10
2019-02-27T05:39:51.229Z,21.93
2019-02-27T05:40:59.843Z,23.22
2019-02-27T05:42:06.382Z,22.27
2019-02-27T05:43:14.060Z,24.30
2019-02-27T05:44:22.130Z,33.63
2019-02-27T05:45:31.170Z,37.40
2019-02-27T05:46:38.404Z,39.78
2019-02-27T05:47:45.995Z,34.35
2019-02-27T05:48:53.350Z,29.52
2019-02-27T05:50:00.462Z,21.95
2019-02-27T05:51:07.693Z,40.52
2019-02-27T05:52:27.512Z,45.70
2019-02-27T05:53:35.441Z,40.15
2019-02-27T05:54:42.101Z,44.55
2019-02-27T05:55:48.400Z,26.42
2019-02-27T05:56:57.372Z,22.95
2019-02-27T05:58:04.172Z,26.75
2019-02-27T05:59:10.811Z,21.75
2019-02-27T06:00:21.742Z,19.75
2019-02-27T06:01:27.781Z,21.57
2019-02-27T06:02:34.772Z,19.87
2019-02-27T06:03:41.672Z,27.13
2019-02-27T06:04:48.081Z,26.42
2019-02-27T06:05:54.373Z,20.32
2019-02-27T06:07:03.440Z,23.05
2019-02-27T06:08:08.951Z,20.72
2019-02-27T06:09:14.511Z,23.55
2019-02-27T06:10:20.905Z,22.10
2019-02-27T06:11:29.548Z,22.13
2019-02-27T06:12:38.186Z,21.07
2019-02-27T06:13:45.029Z,19.20
2019-02-27T06:14:54.800Z,20.48
2019-02-27T06:16:02.903Z,18.85
2019-02-27T06:17:17.116Z,19.02
2019-02-27T06:18:23.807Z,19.92
2019-02-27T06:19:33.582Z,21.07
2019-02-27T06:20:38.964Z,19.65
2019-02-27T06:21:46.720Z,19.62
2019-02-27T06:22:53.232Z,20.65
2019-02-27T06:23:59.714Z,20.82
2019-02-27T06:25:09.395Z,25.68
2019-02-27T06:26:16.105Z,25.75
2019-02-27T06:27:23.812Z,26.52
2019-02-27T06:28:30.344Z,27.60
2019-02-27T06:29:36.692Z,25.57
2019-02-27T06:30:42.459Z,27.15
2019-02-27T06:31:48.794Z,25.68
2019-02-27T06:32:55.119Z,30.52
2019-02-27T06:34:06.577Z,29.18
2019-02-27T06:35:14.474Z,30.25
2019-02-27T06:36:20.175Z,35.25
2019-02-27T06:37:25.915Z,30.48
2019-02-27T06:38:31.645Z,34.65
2019-02-27T06:39:37.192Z,35.65
2019-02-27T06:40:42.980Z,35.43
2019-02-27T06:41:49.742Z,36.75
2019-02-27T06:42:56.938Z,34.63
2019-02-27T06:44:03.220Z,35.35
2019-02-27T06:45:16.021Z,34.03
2019-02-27T06:46:21.793Z,32.30
2019-02-27T06:47:28.154Z,32.03
2019-02-27T06:48:34.998Z,33.28
2019-02-27T06:49:41.201Z,33.40
2019-02-27T06:50:47.702Z,39.65
2019-02-27T06:51:53.559Z,39.58
2019-02-27T06:53:00.244Z,38.38
2019-02-27T06:54:07.512Z,33.50
2019-02-27T06:55:15.051Z,27.85
2019-02-27T06:56:21.003Z,41.50
2019-02-27T06:57:27.500Z,35.73
2019-02-27T06:58:33.521Z,37.05
2019-02-27T06:59:40.174Z,40.58
2019-02-27T07:00:46.543Z,38.45
2019-02-27T07:01:53.345Z,42.43
2019-02-27T07:03:00.181Z,40.28
2019-02-27T07:04:08.066Z,44.80
2019-02-27T07:05:14.168Z,40.20
2019-02-27T07:06:21.579Z,44.98
2019-02-27T07:07:28.783Z,49.23
2019-02-27T07:08:37.861Z,48.52
2019-02-27T07:09:43.251Z,34.05
2019-02-27T07:10:50.893Z,41.63
2019-02-27T07:11:57.211Z,43.42
2019-02-27T07:13:03.803Z,55.00
2019-02-27T07:14:09.792Z,47.78
2019-02-27T07:15:24.732Z,56.18
2019-02-27T07:16:32.593Z,64.60
2019-02-27T07:17:38.410Z,67.17
2019-02-27T07:18:45.182Z,65.10
2019-02-27T07:19:52.203Z,56.83
2019-02-27T07:20:58.430Z,44.53
2019-02-27T07:22:06.316Z,48.42
2019-02-27T07:23:13.333Z,43.92
2019-02-27T07:24:19.043Z,39.20
2019-02-27T07:25:26.244Z,39.98
2019-02-27T07:26:33.009Z,41.00
2019-02-27T07:27:44.313Z,42.38
2019-02-27T07:28:52.619Z,43.42
2019-02-27T07:30:04.967Z,37.65
2019-02-27T07:31:17.280Z,23.83
2019-02-27T07:32:31.319Z,29.55
2019-02-27T07:33:40.439Z,26.40
2019-02-27T07:34:49.739Z,22.60
2019-02-27T07:36:03.324Z,27.00
2019-02-27T07:37:12.960Z,21.25
2019-02-27T07:38:25.474Z,19.48
2019-02-27T07:39:34.734Z,19.17
2019-02-27T07:40:46.065Z,19.45
2019-02-27T07:41:55.127Z,19.12
2019-02-27T07:44:44.631Z,20.23
2019-02-27T07:45:51.711Z,24.57
2019-02-27T07:46:59.534Z,26.12
2019-02-27T07:48:05.164Z,27.15
2019-02-27T07:49:10.814Z,29.42
2019-02-27T07:50:18.234Z,27.30
2019-02-27T07:51:23.960Z,30.62
2019-02-27T07:52:32.623Z,32.60
2019-02-27T07:53:36.949Z,32.00
2019-02-27T07:54:43.175Z,39.35
2019-02-27T07:55:48.739Z,37.65
2019-02-27T07:56:54.816Z,25.20
2019-02-27T07:58:02.163Z,27.10
2019-02-27T07:59:08.233Z,21.00
2019-02-27T08:00:26.329Z,19.23
2019-02-27T08:01:32.653Z,19.12
2019-02-27T08:02:39.395Z,18.05
2019-02-27T08:03:45.852Z,19.70
2019-02-27T08:04:54.685Z,20.37
2019-02-27T08:06:02.415Z,20.02
2019-02-27T08:07:10.069Z,19.23
2019-02-27T08:08:15.123Z,19.73
2019-02-27T08:09:21.777Z,20.30
2019-02-27T08:10:27.950Z,20.37
2019-02-27T08:11:33.562Z,22.37
2019-02-27T08:12:39.542Z,22.45
2019-02-27T08:13:45.694Z,22.52
2019-02-27T08:14:52.324Z,24.00
2019-02-27T08:15:58.778Z,25.90
2019-02-27T08:17:17.043Z,25.92
2019-02-27T08:18:13.886Z,25.23
2019-02-27T08:19:21.664Z,25.27
2019-02-27T08:20:27.513Z,25.62
2019-02-27T08:21:33.662Z,26.15
2019-02-27T08:22:40.804Z,25.02
2019-02-27T08:23:46.741Z,26.73
2019-02-27T08:24:52.941Z,27.58
2019-02-27T08:25:59.044Z,27.27
2019-02-27T08:27:07.149Z,25.45
2019-02-27T08:28:13.462Z,27.25
2019-02-27T08:29:21.695Z,25.75
2019-02-27T08:30:29.262Z,26.40
2019-02-27T08:31:36.274Z,26.42
2019-02-27T08:32:42.022Z,27.27
2019-02-27T08:33:47.764Z,28.17
2019-02-27T08:34:53.495Z,29.70
2019-02-27T08:35:59.235Z,28.07
2019-02-27T08:37:04.995Z,30.48
2019-02-27T08:38:10.743Z,30.10
2019-02-27T08:39:16.493Z,31.48
2019-02-27T08:40:25.169Z,29.40
2019-02-27T08:41:31.467Z,32.13
2019-02-27T08:42:39.637Z,31.15
2019-02-27T08:43:44.251Z,28.67
2019-02-27T08:44:50.286Z,29.77
2019-02-27T08:45:56.047Z,30.05
2019-02-27T08:47:04.272Z,32.30
2019-02-27T08:48:11.536Z,33.53
2019-02-27T08:49:17.443Z,32.95
2019-02-27T08:50:25.136Z,32.93
2019-02-27T08:51:31.413Z,34.35
2019-02-27T08:52:37.333Z,34.48
2019-02-27T08:53:44.226Z,37.35
2019-02-27T08:54:49.845Z,39.05
2019-02-27T08:55:55.776Z,43.33
2019-02-27T08:57:04.164Z,44.00
2019-02-27T08:58:10.448Z,44.55
2019-02-27T08:59:16.596Z,45.45
2019-02-27T09:00:32.382Z,48.40
2019-02-27T09:01:38.204Z,48.63
2019-02-27T09:02:43.937Z,47.78
2019-02-27T09:03:50.599Z,47.25
2019-02-27T09:04:56.237Z,48.28
2019-02-27T09:06:01.903Z,47.38
2019-02-27T09:07:07.618Z,48.52
2019-02-27T09:08:13.265Z,51.63
2019-02-27T09:09:19.009Z,52.10
2019-02-27T09:10:28.087Z,50.55
2019-02-27T09:11:33.364Z,51.08
2019-02-27T09:12:40.281Z,51.55
2019-02-27T09:13:46.264Z,51.83
2019-02-27T09:14:55.879Z,46.40
2019-02-27T09:16:01.883Z,49.65
2019-02-27T09:17:08.215Z,46.63
2019-02-27T09:18:14.252Z,53.83
2019-02-27T09:19:20.818Z,52.10
2019-02-27T09:20:27.072Z,54.05
2019-02-27T09:21:33.434Z,54.57
2019-02-27T09:22:39.801Z,58.38
2019-02-27T09:23:46.326Z,52.33
2019-02-27T09:24:53.430Z,56.90
2019-02-27T09:26:02.515Z,56.23
2019-02-27T09:27:08.014Z,54.60
2019-02-27T09:28:14.003Z,54.60
2019-02-27T09:29:19.963Z,49.23
2019-02-27T09:30:30.098Z,49.45
2019-02-27T09:31:37.739Z,52.70
2019-02-27T09:32:46.061Z,51.73
2019-02-27T09:33:53.310Z,50.95
2019-02-27T09:35:00.278Z,50.43
2019-02-27T09:36:07.969Z,49.45
2019-02-27T09:37:13.866Z,43.55
2019-02-27T09:38:24.102Z,45.03
2019-02-27T09:39:31.204Z,49.18
2019-02-27T09:40:38.559Z,46.90
2019-02-27T09:41:46.891Z,49.13
2019-02-27T09:42:53.134Z,51.30
2019-02-27T09:44:01.336Z,46.43
2019-02-27T09:45:19.712Z,45.20
2019-02-27T09:46:25.981Z,47.13
2019-02-27T09:47:31.668Z,46.93
2019-02-27T09:48:37.655Z,44.07
2019-02-27T09:49:43.854Z,40.77
2019-02-27T09:51:12.603Z,39.03
2019-02-27T09:52:20.114Z,39.60
2019-02-27T09:53:25.955Z,38.20
2019-02-27T09:54:33.972Z,44.67
2019-02-27T09:55:39.794Z,39.78
2019-02-27T09:56:46.693Z,39.60
2019-02-27T09:57:52.925Z,41.10
2019-02-27T09:58:58.847Z,39.13
2019-02-27T10:00:06.642Z,40.43
2019-02-27T10:01:16.097Z,40.53
2019-02-27T10:02:22.016Z,40.17
2019-02-27T10:03:27.673Z,40.90
2019-02-27T10:04:33.375Z,37.10
2019-02-27T10:05:40.854Z,37.00
2019-02-27T10:06:46.739Z,39.63
2019-02-27T10:07:52.949Z,37.53
2019-02-27T10:08:59.742Z,38.23
2019-02-27T10:10:10.392Z,36.47
2019-02-27T10:11:19.536Z,35.23
2019-02-27T10:12:27.745Z,37.27
2019-02-27T10:13:35.546Z,38.77
2019-02-27T10:14:42.664Z,37.97
2019-02-27T10:15:48.854Z,39.90
2019-02-27T10:16:54.713Z,39.03
2019-02-27T10:18:02.029Z,34.77
2019-02-27T10:19:08.304Z,33.73
2019-02-27T10:20:14.145Z,35.50
2019-02-27T10:21:20.484Z,34.73
2019-02-27T10:22:28.833Z,33.17
2019-02-27T10:23:34.433Z,29.87
2019-02-27T10:24:40.406Z,33.37
2019-02-27T10:25:46.762Z,30.83
2019-02-27T10:26:53.534Z,29.87
2019-02-27T10:28:04.498Z,30.80
2019-02-27T10:29:10.915Z,33.07
2019-02-27T10:30:18.897Z,32.43
2019-02-27T10:31:25.909Z,29.27
2019-02-27T10:32:36.421Z,34.77
2019-02-27T10:33:42.844Z,29.90
2019-02-27T10:34:47.389Z,30.77
2019-02-27T10:35:57.547Z,35.77
2019-02-27T10:37:04.198Z,36.33
2019-02-27T10:38:10.118Z,34.43
2019-02-27T10:39:15.806Z,34.43
2019-02-27T10:40:27.484Z,35.60
2019-02-27T10:41:33.215Z,32.63
2019-02-27T10:42:38.849Z,32.57
2019-02-27T10:43:45.407Z,33.07
2019-02-27T10:44:51.054Z,30.90
2019-02-27T10:45:57.917Z,30.17
2019-02-27T10:47:04.056Z,32.30
2019-02-27T10:48:12.605Z,33.00
2019-02-27T10:49:21.547Z,32.83
2019-02-27T10:50:25.078Z,31.90
2019-02-27T10:51:31.146Z,32.40
2019-02-27T10:52:37.789Z,33.50
2019-02-27T10:53:43.856Z,35.10
2019-02-27T10:54:50.975Z,32.03
2019-02-27T10:55:57.488Z,33.80
2019-02-27T10:57:03.482Z,31.83
2019-02-27T10:58:13.287Z,31.40
2019-02-27T10:59:19.668Z,32.70
2019-02-27T11:00:33.747Z,35.60
2019-02-27T11:01:40.241Z,37.07
2019-02-27T11:02:47.914Z,37.20
2019-02-27T11:03:54.620Z,36.13
2019-02-27T11:05:00.483Z,38.27
2019-02-27T11:06:06.480Z,37.47
2019-02-27T11:07:15.504Z,35.83
2019-02-27T11:08:19.582Z,39.97
2019-02-27T11:09:27.466Z,41.53
2019-02-27T11:10:33.326Z,41.50
2019-02-27T11:11:42.367Z,42.50
2019-02-27T11:12:48.065Z,40.57
2019-02-27T11:13:55.415Z,39.93
2019-02-27T11:15:01.409Z,41.20
2019-02-27T11:16:08.324Z,39.87
2019-02-27T11:17:14.889Z,43.80
2019-02-27T11:18:21.606Z,40.40
2019-02-27T11:19:28.226Z,37.67
2019-02-27T11:20:34.707Z,39.00
2019-02-27T11:21:40.786Z,38.63
2019-02-27T11:22:46.983Z,43.17
2019-02-27T11:23:52.759Z,42.97
2019-02-27T11:25:00.141Z,78.20
2019-02-27T11:26:07.604Z,78.03
2019-02-27T11:27:13.782Z,89.77
2019-02-27T11:28:20.176Z,82.77
2019-02-27T11:29:25.858Z,58.83
2019-02-27T11:30:38.346Z,61.43
2019-02-27T11:31:45.575Z,60.50
2019-02-27T11:32:51.767Z,63.07
2019-02-27T11:33:57.417Z,95.43
2019-02-27T11:35:03.156Z,87.87
2019-02-27T11:36:08.909Z,68.50
2019-02-27T11:37:16.425Z,67.67
2019-02-27T11:38:24.688Z,67.17
2019-02-27T11:39:30.497Z,60.13
2019-02-27T11:40:41.543Z,59.83
2019-02-27T11:41:46.090Z,58.37
2019-02-27T11:42:52.260Z,55.47
2019-02-27T11:43:59.226Z,54.37
2019-02-27T11:45:08.854Z,56.10
2019-02-27T11:46:14.782Z,55.40
2019-02-27T11:47:21.259Z,56.83
2019-02-27T11:48:27.330Z,56.50
2019-02-27T11:49:36.294Z,57.57
2019-02-27T11:50:42.275Z,55.80
2019-02-27T11:51:50.589Z,55.50
2019-02-27T11:52:55.811Z,56.13
2019-02-27T11:54:01.778Z,55.93
2019-02-27T11:55:11.298Z,54.90
2019-02-27T11:56:20.323Z,54.47
2019-02-27T11:57:27.320Z,54.83
2019-02-27T11:58:39.121Z,58.00
2019-02-27T11:59:48.307Z,57.77
2019-02-27T12:00:54.014Z,57.90
2019-02-27T12:02:00.185Z,58.57
2019-02-27T12:03:08.552Z,58.57
2019-02-27T12:04:13.486Z,57.07
2019-02-27T12:05:19.215Z,54.40
2019-02-27T12:06:24.903Z,55.90
2019-02-27T12:07:30.594Z,55.53
2019-02-27T12:08:37.268Z,55.30
2019-02-27T12:09:42.899Z,53.80
2019-02-27T12:10:48.545Z,52.60
2019-02-27T12:11:54.286Z,52.33
2019-02-27T12:13:01.180Z,51.47
2019-02-27T12:14:09.092Z,51.80
2019-02-27T12:15:20.486Z,52.47
2019-02-27T12:16:26.449Z,51.50
2019-02-27T12:17:32.186Z,49.87
2019-02-27T12:18:38.876Z,51.43
2019-02-27T12:19:45.309Z,50.50
2019-02-27T12:20:54.009Z,49.93
2019-02-27T12:22:00.535Z,51.20
2019-02-27T12:23:07.450Z,49.63
2019-02-27T12:24:16.356Z,51.27
2019-02-27T12:25:26.839Z,50.53
2019-02-27T12:26:31.089Z,48.00
2019-02-27T12:27:48.767Z,48.13
2019-02-27T12:28:45.367Z,47.53
2019-02-27T12:29:52.184Z,48.80
2019-02-27T12:30:58.698Z,48.50
2019-02-27T12:32:06.114Z,48.67
2019-02-27T12:33:13.020Z,47.23
2019-02-27T12:34:18.695Z,48.07
2019-02-27T12:35:30.595Z,46.00
2019-02-27T12:36:37.248Z,46.53
2019-02-27T12:37:42.986Z,48.80
2019-02-27T12:38:48.728Z,46.70
2019-02-27T12:39:54.975Z,46.43
2019-02-27T12:41:00.718Z,47.17
2019-02-27T12:42:06.997Z,48.83
2019-02-27T12:43:17.268Z,47.63
2019-02-27T12:44:22.557Z,45.97
2019-02-27T12:45:29.912Z,47.83
2019-02-27T12:46:37.035Z,45.93
2019-02-27T12:47:44.347Z,47.13
2019-02-27T12:48:50.038Z,46.10
2019-02-27T12:49:56.950Z,46.03
2019-02-27T12:51:04.303Z,46.23
2019-02-27T12:52:12.094Z,44.73
2019-02-27T12:53:20.816Z,42.00
2019-02-27T12:54:27.515Z,44.53
2019-02-27T12:55:36.291Z,45.43
2019-02-27T12:56:43.328Z,45.03
2019-02-27T12:57:49.558Z,45.50
2019-02-27T12:58:58.702Z,43.83
2019-02-27T13:00:17.516Z,44.73
2019-02-27T13:01:23.624Z,44.80
2019-02-27T13:02:35.724Z,43.57
2019-02-27T13:03:36.699Z,43.23
2019-02-27T13:04:42.437Z,43.00
2019-02-27T13:05:48.179Z,43.60
2019-02-27T13:06:53.924Z,45.10
2019-02-27T13:07:59.557Z,43.27
2019-02-27T13:09:06.289Z,43.43
2019-02-27T13:10:21.694Z,43.13
2019-02-27T13:11:27.438Z,43.07
2019-02-27T13:12:33.177Z,41.17
2019-02-27T13:13:40.048Z,42.53
2019-02-27T13:14:46.089Z,43.50
2019-02-27T13:15:52.587Z,41.33
2019-02-27T13:16:58.287Z,42.80
2019-02-27T13:18:04.460Z,41.53
2019-02-27T13:19:10.289Z,41.47
2019-02-27T13:20:26.091Z,43.47
2019-02-27T13:21:32.129Z,41.87
2019-02-27T13:22:38.736Z,43.40
2019-02-27T13:23:44.738Z,41.57
2019-02-27T13:24:51.328Z,41.00
2019-02-27T13:26:00.284Z,40.07
2019-02-27T13:27:08.999Z,40.53
2019-02-27T13:28:15.668Z,41.13
2019-02-27T13:29:21.608Z,40.70
2019-02-27T13:30:28.830Z,41.63
2019-02-27T13:31:34.539Z,40.47
2019-02-27T13:32:40.676Z,39.63
2019-02-27T13:33:46.428Z,43.07
2019-02-27T13:34:52.153Z,41.17
2019-02-27T13:35:59.812Z,41.30
2019-02-27T13:37:06.870Z,40.43
2019-02-27T13:38:12.558Z,39.67
2019-02-27T13:39:18.297Z,39.30
2019-02-27T13:40:35.135Z,40.70
2019-02-27T13:41:38.909Z,39.17
2019-02-27T13:42:44.640Z,40.10
2019-02-27T13:43:50.383Z,38.27
2019-02-27T13:44:56.618Z,39.23
2019-02-27T13:46:02.944Z,38.43
2019-02-27T13:47:09.139Z,38.70
2019-02-27T13:48:15.698Z,38.10
2019-02-27T13:49:22.037Z,37.57
2019-02-27T13:50:27.796Z,37.30
2019-02-27T13:51:33.788Z,36.03
2019-02-27T13:52:44.868Z,37.67
2019-02-27T13:53:49.226Z,36.37
2019-02-27T13:54:55.384Z,36.33
2019-02-27T13:56:01.621Z,36.80
2019-02-27T13:57:07.571Z,38.37
2019-02-27T13:58:13.300Z,36.80
2019-02-27T13:59:20.608Z,36.40
2019-02-27T14:00:35.238Z,37.57
2019-02-27T14:01:42.804Z,36.37
2019-02-27T14:02:48.664Z,37.83
2019-02-27T14:03:54.400Z,35.57
2019-02-27T14:05:00.768Z,35.00
2019-02-27T14:06:09.320Z,35.20
2019-02-27T14:07:15.114Z,36.60
2019-02-27T14:08:20.751Z,35.50
2019-02-27T14:09:26.492Z,36.87
2019-02-27T14:10:33.669Z,37.40
2019-02-27T14:11:39.381Z,36.13
2019-02-27T14:12:45.145Z,35.63
2019-02-27T14:13:51.686Z,35.83
2019-02-27T14:14:57.433Z,37.50
2019-02-27T14:16:04.123Z,36.17
2019-02-27T14:17:11.481Z,34.63
2019-02-27T14:18:17.229Z,34.77
2019-02-27T14:19:24.792Z,34.40
2019-02-27T14:20:31.459Z,32.90
2019-02-27T14:21:37.431Z,34.07
2019-02-27T14:22:45.150Z,33.27
2019-02-27T14:23:52.889Z,32.93
2019-02-27T14:24:58.959Z,32.63
2019-02-27T14:26:06.736Z,33.23
2019-02-27T14:27:14.587Z,32.63
2019-02-27T14:28:21.021Z,32.97
2019-02-27T14:29:29.880Z,33.13
2019-02-27T14:30:47.919Z,34.47
2019-02-27T14:31:53.952Z,37.77
2019-02-27T14:33:00.239Z,33.60
2019-02-27T14:34:06.056Z,32.23
2019-02-27T14:35:11.819Z,31.40
2019-02-27T14:36:17.549Z,32.73
2019-02-27T14:37:23.281Z,30.83
2019-02-27T14:38:29.039Z,31.13
2019-02-27T14:39:34.752Z,30.90
2019-02-27T14:40:41.212Z,32.63
2019-02-27T14:41:48.787Z,30.83
2019-02-27T14:42:55.132Z,31.60
2019-02-27T14:44:01.004Z,30.67
2019-02-27T14:45:11.315Z,31.20
2019-02-27T14:46:17.869Z,31.43
2019-02-27T14:47:24.169Z,32.60
2019-02-27T14:48:31.349Z,30.57
2019-02-27T14:49:37.629Z,29.33
2019-02-27T14:50:43.322Z,29.80
2019-02-27T14:51:49.297Z,30.40
2019-02-27T14:52:55.682Z,30.87
2019-02-27T14:54:01.465Z,30.83
2019-02-27T14:55:10.590Z,30.63
2019-02-27T14:56:16.335Z,30.73